Time;durP1;ratioP1;P1;durP2;ratioP2;P2;SDS_P1;SDS_P2;PMS_P1;PMS_P2;Temp;Humidity;BMP_temperature;BMP_pressure;BME280_temperature;BME280_humidity;BME280_pressure;Samples;Min_cycle;Max_cycle;Signal;HPM_P1;HPM_P2
2022/09/19 00:01:20;;;;;;;3.95;2.60;;;;;;;;;;4974990;28;20049;-66
2022/09/19 00:03:51;;;;;;;4.32;2.60;;;;;;;;;;4975019;28;20487;-66
2022/09/19 00:06:17;;;;;;;3.90;2.20;;;;;;;;;;4974803;28;20521;-66
2022/09/19 00:08:45;;;;;;;3.20;2.70;;;;;;;;;;4975113;28;20126;-65
2022/09/19 00:11:12;;;;;;;3.92;2.42;;;;;;;;;;4974912;28;20046;-66
2022/09/19 00:13:41;;;;;;;3.77;2.67;;;;;;;;;;4975054;28;20083;-66
2022/09/19 00:16:07;;;;;;;2.50;2.30;;;;;;;;;;4975077;28;20285;-66
2022/09/19 00:18:34;;;;;;;2.90;2.60;;;;;;;;;;4974867;28;20050;-65
2022/09/19 00:21:00;;;;;;;4.97;2.85;;;;;;;;;;4974624;28;20855;-66
2022/09/19 00:26:12;;;;;;;3.72;2.58;;;;;;;;;;4961435;28;20042;-65
2022/09/19 00:28:45;;;;;;;5.03;2.72;;;;;;;;;;4974574;28;20062;-66
2022/09/19 00:31:17;;;;;;;4.97;2.63;;;;;;;;;;4974738;28;20047;-65
2022/09/19 00:33:44;;;;;;;3.40;3.10;;;;;;;;;;4974602;28;20135;-66
2022/09/19 00:36:10;;;;;;;4.55;3.28;;;;;;;;;;4974644;28;20069;-65
2022/09/19 00:38:37;;;;;;;3.60;2.88;;;;;;;;;;4973216;28;20066;-65
2022/09/19 00:41:03;;;;;;;2.45;2.25;;;;;;;;;;4974551;28;20060;-66
2022/09/19 00:43:45;;;;;;;4.35;2.90;;;;;;;;;;4974526;28;20057;-66
2022/09/19 00:46:11;;;;;;;5.20;2.90;;;;;;;;;;4974047;28;20522;-66
2022/09/19 00:48:41;;;;;;;3.40;2.55;;;;;;;;;;4974326;28;20058;-66
2022/09/19 00:51:10;;;;;;;2.97;2.75;;;;;;;;;;4973970;28;20055;-66
2022/09/19 00:53:36;;;;;;;3.40;2.80;;;;;;;;;;4974385;28;20043;-66
2022/09/19 00:56:04;;;;;;;4.13;2.72;;;;;;;;;;4974595;28;20050;-66
2022/09/19 00:58:32;;;;;;;3.47;2.47;;;;;;;;;;4974008;28;20043;-66
2022/09/19 01:00:59;;;;;;;3.13;2.70;;;;;;;;;;4973962;28;20578;-66
2022/09/19 01:03:27;;;;;;;2.50;2.20;;;;;;;;;;4973837;28;20106;-66
2022/09/19 01:06:17;;;;;;;3.92;3.05;;;;;;;;;;4972691;28;20058;-66
2022/09/19 01:08:45;;;;;;;5.40;2.67;;;;;;;;;;4955148;28;20061;-66
2022/09/19 01:11:32;;;;;;;3.80;2.72;;;;;;;;;;4973739;28;20054;-66
2022/09/19 01:14:05;;;;;;;4.10;2.57;;;;;;;;;;4973828;28;20050;-66
2022/09/19 01:16:39;;;;;;;2.90;2.40;;;;;;;;;;4973859;28;20058;-66
2022/09/19 01:19:09;;;;;;;4.15;2.45;;;;;;;;;;4973737;28;20053;-66
2022/09/19 01:21:38;;;;;;;2.90;2.70;;;;;;;;;;4973709;28;20061;-66
2022/09/19 01:24:40;;;;;;;3.08;2.72;;;;;;;;;;4973758;28;20055;-66
2022/09/19 01:27:18;;;;;;;4.22;2.72;;;;;;;;;;4932880;29;20043;-66
2022/09/19 01:29:49;;;;;;;3.10;2.30;;;;;;;;;;4958680;28;20521;-66
2022/09/19 01:32:22;;;;;;;2.63;2.42;;;;;;;;;;4973426;28;20062;-66
2022/09/19 01:34:55;;;;;;;2.88;2.25;;;;;;;;;;4973728;28;20054;-66
2022/09/19 01:37:32;;;;;;;3.67;2.33;;;;;;;;;;4973605;28;20058;-66
2022/09/19 01:40:00;;;;;;;3.90;2.70;;;;;;;;;;4973574;28;20054;-66
2022/09/19 01:42:27;;;;;;;3.72;2.80;;;;;;;;;;4973289;28;20530;-66
2022/09/19 01:44:53;;;;;;;2.50;2.30;;;;;;;;;;4973117;28;20065;-66
2022/09/19 01:47:29;;;;;;;3.80;2.10;;;;;;;;;;4973463;28;20050;-66
2022/09/19 01:50:01;;;;;;;3.15;2.28;;;;;;;;;;4972853;28;20051;-65
2022/09/19 01:52:31;;;;;;;3.35;2.10;;;;;;;;;;4972249;28;20054;-65
2022/09/19 01:55:06;;;;;;;3.80;2.25;;;;;;;;;;4973118;28;20043;-65
2022/09/19 01:57:54;;;;;;;3.85;1.80;;;;;;;;;;4973067;28;20051;-65
2022/09/19 02:00:21;;;;;;;;;;;;;;;;;;4973592;28;20065;-65
2022/09/19 02:03:04;;;;;;;2.92;2.15;;;;;;;;;;4973300;28;19928;-65
2022/09/19 02:05:35;;;;;;;2.95;2.03;;;;;;;;;;4972755;28;20415;-65
2022/09/19 02:08:14;;;;;;;2.63;2.28;;;;;;;;;;4973100;28;20047;-66
2022/09/19 02:11:03;;;;;;;2.38;2.15;;;;;;;;;;4973162;28;20070;-66
2022/09/19 02:13:31;;;;;;;2.38;2.20;;;;;;;;;;4973032;28;20058;-66
2022/09/19 02:16:01;;;;;;;2.47;1.90;;;;;;;;;;4973104;28;20057;-66
2022/09/19 02:18:34;;;;;;;3.25;2.10;;;;;;;;;;4972845;28;20506;-66
2022/09/19 02:21:05;;;;;;;2.63;2.20;;;;;;;;;;4973024;28;20055;-66
2022/09/19 02:23:35;;;;;;;2.60;2.13;;;;;;;;;;4972855;28;20047;-66
2022/09/19 02:26:03;;;;;;;4.18;1.80;;;;;;;;;;4972986;28;20066;-66
2022/09/19 02:28:38;;;;;;;3.67;1.95;;;;;;;;;;4972711;28;20513;-66
2022/09/19 02:31:06;;;;;;;2.10;1.67;;;;;;;;;;4972853;28;20089;-66
2022/09/19 02:33:34;;;;;;;2.40;1.63;;;;;;;;;;4972846;28;20105;-66
2022/09/19 02:36:00;;;;;;;;;;;;;;;;;;4973307;28;20514;-66
2022/09/19 02:38:34;;;;;;;3.50;1.90;;;;;;;;;;4972694;28;19926;-66
2022/09/19 02:41:04;;;;;;;2.47;1.60;;;;;;;;;;4972750;28;20065;-66
2022/09/19 02:43:47;;;;;;;2.38;1.90;;;;;;;;;;4972845;28;20077;-66
2022/09/19 02:46:36;;;;;;;2.30;1.65;;;;;;;;;;4972899;28;20054;-66
2022/09/19 02:49:06;;;;;;;3.70;1.58;;;;;;;;;;4972587;28;20055;-66
2022/09/19 02:51:35;;;;;;;3.80;2.00;;;;;;;;;;4972727;28;20043;-66
2022/09/19 02:54:10;;;;;;;2.20;1.77;;;;;;;;;;4972956;28;20061;-66
2022/09/19 02:56:37;;;;;;;2.08;1.88;;;;;;;;;;4972697;28;20162;-66
2022/09/19 02:59:06;;;;;;;4.10;1.80;;;;;;;;;;4972363;28;20499;-66
2022/09/19 03:01:34;;;;;;;1.92;1.67;;;;;;;;;;4974361;28;20050;-66
2022/09/19 03:04:12;;;;;;;;;;;;;;;;;;4976493;28;20058;-65
2022/09/19 03:06:42;;;;;;;2.33;1.80;;;;;;;;;;4976083;28;19964;-65
2022/09/19 03:09:11;;;;;;;2.10;1.73;;;;;;;;;;4976445;28;20042;-65
2022/09/19 03:11:39;;;;;;;2.10;1.88;;;;;;;;;;4976102;28;20410;-66
2022/09/19 03:14:06;;;;;;;2.50;1.90;;;;;;;;;;4975974;28;20054;-66
2022/09/19 03:16:34;;;;;;;3.23;1.70;;;;;;;;;;4976186;28;20375;-66
2022/09/19 03:19:05;;;;;;;3.35;1.80;;;;;;;;;;4975833;28;20047;-66
2022/09/19 03:21:32;;;;;;;2.83;2.05;;;;;;;;;;4975769;28;20490;-66
2022/09/19 03:23:58;;;;;;;2.97;1.60;;;;;;;;;;4975664;28;20057;-66
2022/09/19 03:26:28;;;;;;;2.38;1.67;;;;;;;;;;4975665;28;20089;-66
2022/09/19 03:28:54;;;;;;;1.95;1.70;;;;;;;;;;4975716;28;20418;-66
2022/09/19 03:31:22;;;;;;;3.63;1.92;;;;;;;;;;4976089;28;20047;-66
2022/09/19 03:33:49;;;;;;;1.75;1.55;;;;;;;;;;4976157;28;20058;-66
2022/09/19 03:36:15;;;;;;;1.93;1.77;;;;;;;;;;4975802;28;20059;-66
2022/09/19 03:38:44;;;;;;;2.05;1.63;;;;;;;;;;4975644;28;20051;-66
2022/09/19 03:41:11;;;;;;;2.83;1.75;;;;;;;;;;4975402;28;20058;-66
2022/09/19 03:43:38;;;;;;;6.20;2.37;;;;;;;;;;4975598;28;20059;-66
2022/09/19 03:46:05;;;;;;;1.67;1.58;;;;;;;;;;4975475;28;20483;-66
2022/09/19 03:48:32;;;;;;;2.20;1.90;;;;;;;;;;4975311;28;20071;-66
2022/09/19 03:51:00;;;;;;;3.05;2.00;;;;;;;;;;4975387;28;20055;-65
2022/09/19 03:53:27;;;;;;;2.15;1.95;;;;;;;;;;4975356;28;20400;-65
2022/09/19 03:55:54;;;;;;;2.45;2.10;;;;;;;;;;4975037;28;20490;-65
2022/09/19 03:58:21;;;;;;;1.92;1.83;;;;;;;;;;4975401;28;20070;-65
2022/09/19 04:00:47;;;;;;;2.78;2.08;;;;;;;;;;4975247;28;20051;-65
2022/09/19 04:03:13;;;;;;;2.95;1.90;;;;;;;;;;4975067;28;20133;-65
2022/09/19 04:05:42;;;;;;;2.13;1.92;;;;;;;;;;4975011;28;20059;-65
2022/09/19 04:08:08;;;;;;;3.25;1.95;;;;;;;;;;4975260;28;20055;-65
2022/09/19 04:10:35;;;;;;;2.80;2.00;;;;;;;;;;4975150;28;20043;-65
2022/09/19 04:13:01;;;;;;;4.32;1.90;;;;;;;;;;4974572;28;20069;-65
2022/09/19 04:15:27;;;;;;;3.80;2.03;;;;;;;;;;4975029;28;20052;-65
2022/09/19 04:17:54;;;;;;;3.17;2.30;;;;;;;;;;4975133;28;20054;-66
2022/09/19 04:20:21;;;;;;;3.17;2.10;;;;;;;;;;4974838;28;20058;-65
2022/09/19 04:22:48;;;;;;;3.33;1.77;;;;;;;;;;4974904;28;20047;-65
2022/09/19 04:25:14;;;;;;;4.78;2.30;;;;;;;;;;4974602;28;20057;-66
2022/09/19 04:27:41;;;;;;;3.35;2.20;;;;;;;;;;4975017;28;20051;-65
2022/09/19 04:30:07;;;;;;;4.43;2.47;;;;;;;;;;4974818;28;20047;-66
2022/09/19 04:32:34;;;;;;;1.85;1.70;;;;;;;;;;4973658;28;20042;-66
2022/09/19 04:35:00;;;;;;;2.08;1.88;;;;;;;;;;4974480;28;20043;-66
2022/09/19 04:37:29;;;;;;;1.83;1.70;;;;;;;;;;4974372;28;20070;-66
2022/09/19 04:39:55;;;;;;;3.88;2.17;;;;;;;;;;4974388;28;20054;-66
2022/09/19 04:42:22;;;;;;;2.33;2.13;;;;;;;;;;4974459;28;20109;-66
2022/09/19 04:44:48;;;;;;;5.20;2.20;;;;;;;;;;4974201;28;20055;-66
2022/09/19 04:47:15;;;;;;;2.00;1.80;;;;;;;;;;4974173;28;20051;-66
2022/09/19 04:49:41;;;;;;;2.15;1.95;;;;;;;;;;4974113;28;20606;-66
2022/09/19 04:52:12;;;;;;;1.73;1.60;;;;;;;;;;4974264;28;20054;-66
2022/09/19 04:54:39;;;;;;;2.58;1.90;;;;;;;;;;4974462;28;20043;-66
2022/09/19 04:57:06;;;;;;;2.13;1.95;;;;;;;;;;4974262;28;20061;-66
2022/09/19 04:59:33;;;;;;;2.05;1.70;;;;;;;;;;4973943;28;20490;-66
2022/09/19 05:02:01;;;;;;;3.28;2.15;;;;;;;;;;4974028;28;20069;-66
2022/09/19 05:04:27;;;;;;;3.35;1.90;;;;;;;;;;4974000;28;20053;-66
2022/09/19 05:06:54;;;;;;;2.80;1.70;;;;;;;;;;4973805;28;20414;-66
2022/09/19 05:09:22;;;;;;;4.05;1.95;;;;;;;;;;4974094;28;20043;-66
2022/09/19 05:11:48;;;;;;;;;;;;;;;;;;4974498;28;20043;-66
2022/09/19 05:14:15;;;;;;;1.92;1.83;;;;;;;;;;4973844;28;19922;-66
2022/09/19 05:16:41;;;;;;;2.50;2.00;;;;;;;;;;4973744;28;20058;-65
2022/09/19 05:19:08;;;;;;;3.00;1.90;;;;;;;;;;4973917;28;20054;-66
2022/09/19 05:21:36;;;;;;;1.73;1.63;;;;;;;;;;4973577;28;20129;-65
2022/09/19 05:24:03;;;;;;;1.70;1.60;;;;;;;;;;4972893;28;20490;-66
2022/09/19 05:26:29;;;;;;;2.35;1.85;;;;;;;;;;4973787;28;20391;-66
2022/09/19 05:28:55;;;;;;;4.03;1.90;;;;;;;;;;4973712;28;20051;-66
2022/09/19 05:31:22;;;;;;;4.22;2.15;;;;;;;;;;4973732;28;20047;-66
2022/09/19 05:33:48;;;;;;;2.92;1.73;;;;;;;;;;4973668;28;20050;-66
2022/09/19 05:36:15;;;;;;;2.20;2.08;;;;;;;;;;4973277;28;20073;-66
2022/09/19 05:38:41;;;;;;;3.33;2.20;;;;;;;;;;4973584;28;20410;-66
2022/09/19 05:41:08;;;;;;;7.85;3.47;;;;;;;;;;4973265;28;20414;-66
2022/09/19 05:43:34;;;;;;;8.80;5.47;;;;;;;;;;4973573;28;20050;-66
2022/09/19 05:46:01;;;;;;;17.95;10.30;;;;;;;;;;4973614;28;20051;-66
2022/09/19 05:48:29;;;;;;;17.33;10.07;;;;;;;;;;4973513;28;20446;-66
2022/09/19 05:50:55;;;;;;;12.75;7.15;;;;;;;;;;4973161;28;20406;-66
2022/09/19 05:56:08;;;;;;;9.75;6.10;;;;;;;;;;4973354;28;20065;-66
2022/09/19 05:58:36;;;;;;;8.95;4.80;;;;;;;;;;4973037;28;20483;-66
2022/09/19 06:01:06;;;;;;;8.20;4.90;;;;;;;;;;4973211;28;20058;-66
2022/09/19 06:03:34;;;;;;;11.63;5.97;;;;;;;;;;4972920;28;20460;-66
2022/09/19 06:06:00;;;;;;;7.43;5.30;;;;;;;;;;4973188;28;20061;-66
2022/09/19 06:08:27;;;;;;;9.35;4.90;;;;;;;;;;4973230;28;20054;-66
2022/09/19 06:10:53;;;;;;;4.80;3.53;;;;;;;;;;4972819;28;20050;-66
2022/09/19 06:13:21;;;;;;;7.10;3.97;;;;;;;;;;4972948;28;20042;-66
2022/09/19 06:15:47;;;;;;;4.78;3.60;;;;;;;;;;4973013;28;20070;-66
2022/09/19 06:18:14;;;;;;;5.07;3.20;;;;;;;;;;4972949;28;20053;-66
2022/09/19 06:20:40;;;;;;;4.78;3.50;;;;;;;;;;4973162;28;20066;-66
2022/09/19 06:23:09;;;;;;;5.55;3.60;;;;;;;;;;4972793;28;20058;-65
2022/09/19 06:25:36;;;;;;;7.97;4.45;;;;;;;;;;4973051;28;20077;-65
2022/09/19 06:28:05;;;;;;;5.38;4.13;;;;;;;;;;4973000;28;20418;-65
2022/09/19 06:30:31;;;;;;;5.88;3.97;;;;;;;;;;4973016;28;20051;-66
2022/09/19 06:32:58;;;;;;;6.90;3.92;;;;;;;;;;4972810;28;20046;-66
2022/09/19 06:35:29;;;;;;;5.80;3.72;;;;;;;;;;4974911;28;20046;-66
2022/09/19 06:38:00;;;;;;;5.22;3.20;;;;;;;;;;4976844;28;20059;-66
2022/09/19 06:40:27;;;;;;;5.88;3.60;;;;;;;;;;4976350;28;20054;-67
2022/09/19 06:43:00;;;;;;;6.18;3.55;;;;;;;;;;4976483;28;20113;-66
2022/09/19 06:45:27;;;;;;;3.45;2.80;;;;;;;;;;4976692;28;20426;-65
2022/09/19 06:47:58;;;;;;;3.83;2.50;;;;;;;;;;4976554;28;20050;-65
2022/09/19 06:50:25;;;;;;;3.53;2.30;;;;;;;;;;4976594;28;20062;-65
2022/09/19 06:52:51;;;;;;;3.58;2.67;;;;;;;;;;4976407;28;20054;-65
2022/09/19 06:55:18;;;;;;;3.40;2.90;;;;;;;;;;4976326;28;20047;-65
2022/09/19 06:57:54;;;;;;;4.53;3.13;;;;;;;;;;4969108;28;20070;-65
2022/09/19 07:00:24;;;;;;;3.00;2.70;;;;;;;;;;4972694;28;20508;-65
2022/09/19 07:02:53;;;;;;;2.72;2.42;;;;;;;;;;4976135;28;20460;-64
2022/09/19 07:05:20;;;;;;;3.67;2.58;;;;;;;;;;4975446;28;20054;-65
2022/09/19 07:07:51;;;;;;;4.72;2.75;;;;;;;;;;4975443;28;20051;-66
2022/09/19 07:10:19;;;;;;;4.40;2.45;;;;;;;;;;4975738;28;20146;-66
2022/09/19 07:13:01;;;;;;;3.63;2.88;;;;;;;;;;4975514;28;20053;-66
2022/09/19 07:15:28;;;;;;;5.68;2.67;;;;;;;;;;4975487;28;20141;-66
2022/09/19 07:17:55;;;;;;;3.22;2.50;;;;;;;;;;4975466;28;20051;-67
2022/09/19 07:20:23;;;;;;;3.90;3.47;;;;;;;;;;4975058;28;20060;-66
2022/09/19 07:22:59;;;;;;;4.43;3.60;;;;;;;;;;4974819;28;20054;-66
2022/09/19 07:25:26;;;;;;;3.95;3.65;;;;;;;;;;4975348;28;20057;-66
2022/09/19 07:28:00;;;;;;;3.88;3.58;;;;;;;;;;4975086;28;20054;-66
2022/09/19 07:30:31;;;;;;;4.60;3.85;;;;;;;;;;4962304;28;20662;-65
2022/09/19 07:32:57;;;;;;;;;;;;;;;;;;4975059;28;20046;-66
2022/09/19 07:35:25;;;;;;;6.78;3.55;;;;;;;;;;4975055;28;19929;-67
2022/09/19 07:37:51;;;;;;;;;;;;;;;;;;4972617;28;20473;-66
2022/09/19 07:40:18;;;;;;;3.10;2.83;;;;;;;;;;4974820;28;19930;-66
2022/09/19 07:42:47;;;;;;;6.13;2.95;;;;;;;;;;4974881;28;20109;-65
2022/09/19 07:45:16;;;;;;;3.75;2.67;;;;;;;;;;4974855;28;20414;-65
2022/09/19 07:47:46;;;;;;;2.67;2.40;;;;;;;;;;4974079;28;20053;-66
2022/09/19 07:50:14;;;;;;;3.10;2.80;;;;;;;;;;4961004;28;20051;-66
2022/09/19 07:52:41;;;;;;;3.78;2.78;;;;;;;;;;4973061;28;20070;-66
2022/09/19 07:55:10;;;;;;;2.45;2.25;;;;;;;;;;4973537;28;20498;-66
2022/09/19 07:57:36;;;;;;;3.15;2.30;;;;;;;;;;4974514;28;20150;-66
2022/09/19 08:00:04;;;;;;;3.25;2.65;;;;;;;;;;4973843;28;20499;-66
2022/09/19 08:02:30;;;;;;;3.95;2.35;;;;;;;;;;4974317;28;20043;-66
2022/09/19 08:04:57;;;;;;;3.70;2.30;;;;;;;;;;4974290;28;20082;-67
2022/09/19 08:07:23;;;;;;;3.22;2.17;;;;;;;;;;4973871;28;20059;-66
2022/09/19 08:09:50;;;;;;;2.80;2.22;;;;;;;;;;4974383;28;20054;-66
2022/09/19 08:12:16;;;;;;;2.45;2.20;;;;;;;;;;4974385;28;20039;-66
2022/09/19 08:14:43;;;;;;;3.05;2.20;;;;;;;;;;4974688;28;20058;-66
2022/09/19 08:17:10;;;;;;;2.78;2.25;;;;;;;;;;4974613;28;20384;-66
2022/09/19 08:19:36;;;;;;;4.13;2.25;;;;;;;;;;4974547;28;20046;-66
2022/09/19 08:22:02;;;;;;;2.15;1.83;;;;;;;;;;4972622;28;20057;-66
2022/09/19 08:24:29;;;;;;;2.00;1.80;;;;;;;;;;4974143;28;20054;-66
2022/09/19 08:26:58;;;;;;;3.53;2.10;;;;;;;;;;4974104;28;20047;-66
2022/09/19 08:29:26;;;;;;;4.35;2.45;;;;;;;;;;4973635;28;20283;-66
2022/09/19 08:31:53;;;;;;;1.83;1.70;;;;;;;;;;4973825;28;20046;-67
2022/09/19 08:34:19;;;;;;;2.75;2.20;;;;;;;;;;4974121;28;20122;-67
2022/09/19 08:36:45;;;;;;;2.50;1.83;;;;;;;;;;4971092;28;20073;-66
2022/09/19 08:39:12;;;;;;;2.67;1.63;;;;;;;;;;4973707;28;20407;-67
2022/09/19 08:41:48;;;;;;;2.40;1.52;;;;;;;;;;4973361;28;20065;-66
2022/09/19 08:44:20;;;;;;;1.83;1.20;;;;;;;;;;4973105;28;20062;-66
2022/09/19 08:46:55;;;;;;;1.20;1.10;;;;;;;;;;4973545;28;20054;-66
2022/09/19 08:49:34;;;;;;;2.25;1.30;;;;;;;;;;4970791;28;20055;-66
2022/09/19 08:52:01;;;;;;;1.13;1.00;;;;;;;;;;4973408;28;20055;-66
2022/09/19 08:54:32;;;;;;;1.88;1.00;;;;;;;;;;4960712;28;20047;-67
2022/09/19 08:56:59;;;;;;;2.45;1.10;;;;;;;;;;4973747;28;20069;-66
2022/09/19 08:59:29;;;;;;;1.33;0.80;;;;;;;;;;4971666;28;20511;-67
2022/09/19 09:01:57;;;;;;;1.80;0.88;;;;;;;;;;4973079;28;20042;-66
2022/09/19 09:04:44;;;;;;;1.33;0.80;;;;;;;;;;4973716;28;20070;-66
2022/09/19 09:07:10;;;;;;;1.60;1.08;;;;;;;;;;4973182;28;20070;-66
2022/09/19 09:09:39;;;;;;;1.33;0.95;;;;;;;;;;4973542;28;20050;-66
2022/09/19 09:12:27;;;;;;;2.05;0.80;;;;;;;;;;4973794;28;20042;-67
2022/09/19 09:15:13;;;;;;;1.55;0.50;;;;;;;;;;4973207;28;20046;-67
2022/09/19 09:18:06;;;;;;;2.25;0.80;;;;;;;;;;4972637;28;20109;-66
2022/09/19 09:20:36;;;;;;;0.90;0.60;;;;;;;;;;4962662;28;20050;-66
2022/09/19 09:23:05;;;;;;;1.08;0.95;;;;;;;;;;4973478;28;20121;-65
2022/09/19 09:25:35;;;;;;;3.90;0.80;;;;;;;;;;4973240;28;20553;-66
2022/09/19 09:28:25;;;;;;;1.25;0.95;;;;;;;;;;4969043;28;20048;-66
2022/09/19 09:30:53;;;;;;;1.15;0.73;;;;;;;;;;4972770;28;20070;-65
2022/09/19 09:33:23;;;;;;;0.95;0.70;;;;;;;;;;4972752;28;20049;-67
2022/09/19 09:36:10;;;;;;;1.58;0.90;;;;;;;;;;4972401;28;20043;-66
2022/09/19 09:38:40;;;;;;;1.45;0.93;;;;;;;;;;4972526;28;20414;-67
2022/09/19 09:44:06;;;;;;;1.45;1.00;;;;;;;;;;4972505;28;20051;-67
2022/09/19 09:46:53;;;;;;;3.40;1.08;;;;;;;;;;4972538;28;20415;-66
2022/09/19 09:49:27;;;;;;;0.80;0.80;;;;;;;;;;4973016;28;20046;-66
2022/09/19 09:51:59;;;;;;;3.55;1.00;;;;;;;;;;4972815;28;20057;-66
2022/09/19 09:57:32;;;;;;;2.30;0.77;;;;;;;;;;4969571;28;20046;-67
2022/09/19 10:03:35;;;;;;;1.58;1.00;;;;;;;;;;4972537;28;20062;-66
2022/09/19 10:06:03;;;;;;;0.88;0.80;;;;;;;;;;4972312;28;20138;-66
2022/09/19 10:08:37;;;;;;;1.85;0.80;;;;;;;;;;4972532;28;20047;-66
2022/09/19 10:11:16;;;;;;;2.05;0.60;;;;;;;;;;4971990;28;20058;-65
2022/09/19 10:14:02;;;;;;;1.27;0.70;;;;;;;;;;4972434;28;20388;-65
2022/09/19 10:16:32;;;;;;;4.85;1.00;;;;;;;;;;4972702;28;20053;-66
2022/09/19 10:19:06;;;;;;;3.15;0.90;;;;;;;;;;4972461;28;20141;-65
2022/09/19 10:21:32;;;;;;;1.13;0.90;;;;;;;;;;4970122;28;20553;-66
2022/09/19 10:23:59;;;;;;;1.30;0.87;;;;;;;;;;4972190;28;20062;-66
2022/09/19 10:26:26;;;;;;;2.63;0.75;;;;;;;;;;4972067;28;20061;-66
2022/09/19 10:28:59;;;;;;;1.30;0.80;;;;;;;;;;4972093;28;20051;-67
2022/09/19 10:31:31;;;;;;;0.80;0.80;;;;;;;;;;4972336;28;20046;-66
2022/09/19 10:34:04;;;;;;;2.25;0.80;;;;;;;;;;4972217;28;20267;-66
2022/09/19 10:36:33;;;;;;;2.15;0.88;;;;;;;;;;4971139;28;20558;-66
2022/09/19 10:39:07;;;;;;;1.73;0.75;;;;;;;;;;4972364;28;20057;-67
2022/09/19 10:41:37;;;;;;;0.95;0.82;;;;;;;;;;4972735;28;20051;-67
2022/09/19 10:44:09;;;;;;;2.00;0.75;;;;;;;;;;4972716;28;20081;-68
2022/09/19 10:46:41;;;;;;;1.27;0.88;;;;;;;;;;4971967;28;20051;-66
2022/09/19 10:49:18;;;;;;;1.60;1.50;;;;;;;;;;4972440;28;20055;-68
2022/09/19 10:51:46;;;;;;;2.10;1.10;;;;;;;;;;4972135;28;20744;-68
2022/09/19 10:54:33;;;;;;;2.05;1.30;;;;;;;;;;4972558;28;20118;-67
2022/09/19 10:57:01;;;;;;;1.42;0.88;;;;;;;;;;4958600;28;20050;-66
2022/09/19 10:59:36;;;;;;;6.53;3.58;;;;;;;;;;4971988;28;20049;-66
2022/09/19 11:02:08;;;;;;;13.50;12.18;;;;;;;;;;4972329;28;20058;-66
2022/09/19 11:04:36;;;;;;;3.90;3.08;;;;;;;;;;4972362;28;20043;-66
2022/09/19 11:07:09;;;;;;;1.60;0.80;;;;;;;;;;4970251;28;20062;-66
2022/09/19 11:09:37;;;;;;;1.70;0.80;;;;;;;;;;4972394;28;20395;-66
2022/09/19 11:12:04;;;;;;;2.08;1.35;;;;;;;;;;4972046;28;20051;-66
2022/09/19 11:14:32;;;;;;;2.53;2.13;;;;;;;;;;4971823;28;20047;-66
2022/09/19 11:17:00;;;;;;;2.40;0.95;;;;;;;;;;4972246;28;20407;-66
2022/09/19 11:19:49;;;;;;;1.13;0.95;;;;;;;;;;4972218;28;20447;-67
2022/09/19 11:22:31;;;;;;;0.68;0.60;;;;;;;;;;4968478;28;20057;-67
2022/09/19 11:25:21;;;;;;;1.48;1.15;;;;;;;;;;4973901;28;20522;-67
2022/09/19 11:27:53;;;;;;;0.70;0.70;;;;;;;;;;4946414;28;20047;-67
2022/09/19 11:30:22;;;;;;;1.65;0.60;;;;;;;;;;4972727;28;20059;-67
2022/09/19 11:33:09;;;;;;;1.92;1.80;;;;;;;;;;4968300;28;20061;-67
2022/09/19 11:35:44;;;;;;;1.35;0.60;;;;;;;;;;4957382;28;20126;-66
2022/09/19 11:38:32;;;;;;;1.40;0.90;;;;;;;;;;4975068;28;20070;-67
2022/09/19 11:41:33;;;;;;;2.22;0.68;;;;;;;;;;4974636;28;20059;-67
2022/09/19 11:44:00;;;;;;;2.08;1.30;;;;;;;;;;4974834;28;20065;-67
2022/09/19 11:46:32;;;;;;;1.23;1.10;;;;;;;;;;4975035;28;20055;-67
2022/09/19 11:49:19;;;;;;;1.55;0.90;;;;;;;;;;4974920;28;20089;-67
2022/09/19 11:52:06;;;;;;;2.43;1.27;;;;;;;;;;4972299;28;20057;-67
2022/09/19 11:54:34;;;;;;;;;;;;;;;;;;4975739;28;20047;-67
2022/09/19 11:57:03;;;;;;;3.10;1.13;;;;;;;;;;4974946;28;19929;-67
2022/09/19 11:59:40;;;;;;;1.88;0.73;;;;;;;;;;4975190;28;20406;-66
2022/09/19 12:02:13;;;;;;;3.92;2.65;;;;;;;;;;4975100;28;20050;-66
2022/09/19 12:04:57;;;;;;;0.80;0.50;;;;;;;;;;4975109;28;20142;-66
2022/09/19 12:07:53;;;;;;;1.15;0.95;;;;;;;;;;4974566;28;20051;-66
2022/09/19 12:10:24;;;;;;;0.98;0.98;;;;;;;;;;4974089;28;20051;-67
2022/09/19 12:13:01;;;;;;;1.58;0.63;;;;;;;;;;4974956;28;20057;-66
2022/09/19 12:15:29;;;;;;;0.93;0.60;;;;;;;;;;4974592;28;20053;-67
2022/09/19 12:17:56;;;;;;;0.70;0.60;;;;;;;;;;4974853;28;20062;-67
2022/09/19 12:20:27;;;;;;;1.40;0.93;;;;;;;;;;4974301;28;20070;-68
2022/09/19 12:22:55;;;;;;;0.63;0.57;;;;;;;;;;4974502;28;20058;-66
2022/09/19 12:25:24;;;;;;;1.98;0.60;;;;;;;;;;4973819;28;20049;-66
2022/09/19 12:27:54;;;;;;;0.60;0.40;;;;;;;;;;4973353;28;20054;-67
2022/09/19 12:30:22;;;;;;;0.93;0.63;;;;;;;;;;4974272;28;20047;-66
2022/09/19 12:33:06;;;;;;;0.32;0.30;;;;;;;;;;4973950;28;20065;-67
2022/09/19 12:35:41;;;;;;;0.65;0.40;;;;;;;;;;4974478;28;20043;-66
2022/09/19 12:38:25;;;;;;;1.02;0.30;;;;;;;;;;4974343;28;20137;-66
2022/09/19 12:41:07;;;;;;;2.78;0.63;;;;;;;;;;4974044;28;20050;-66
2022/09/19 12:43:46;;;;;;;0.30;0.30;;;;;;;;;;4974233;28;20054;-67
2022/09/19 12:46:31;;;;;;;0.40;0.20;;;;;;;;;;4973577;28;20047;-67
2022/09/19 12:49:15;;;;;;;0.63;0.33;;;;;;;;;;4973724;28;20059;-67
2022/09/19 12:51:46;;;;;;;1.73;0.30;;;;;;;;;;4972921;28;20281;-67
2022/09/19 12:54:23;;;;;;;1.30;0.35;;;;;;;;;;4973439;28;20043;-67
2022/09/19 12:57:05;;;;;;;1.05;0.68;;;;;;;;;;4972379;28;20043;-67
2022/09/19 12:59:35;;;;;;;5.00;4.60;;;;;;;;;;4973106;28;20061;-66
2022/09/19 13:02:22;;;;;;;2.40;2.20;;;;;;;;;;4973468;28;20051;-66
2022/09/19 13:04:52;;;;;;;1.25;0.47;;;;;;;;;;4973238;28;20047;-66
2022/09/19 13:07:31;;;;;;;0.70;0.50;;;;;;;;;;4972928;28;20058;-66
2022/09/19 13:10:07;;;;;;;1.30;0.50;;;;;;;;;;4972996;28;20146;-66
2022/09/19 13:12:36;;;;;;;0.57;0.40;;;;;;;;;;4973236;28;20057;-66
2022/09/19 13:15:22;;;;;;;0.82;0.30;;;;;;;;;;4973168;28;20043;-67
2022/09/19 13:23:32;;;;;;;1.10;0.40;;;;;;;;;;4972938;28;20054;-66
2022/09/19 13:26:17;;;;;;;0.40;0.40;;;;;;;;;;4972741;28;20499;-66
2022/09/19 13:28:48;;;;;;;0.88;0.50;;;;;;;;;;4972738;28;20057;-66
2022/09/19 13:31:17;;;;;;;0.50;0.50;;;;;;;;;;4972697;28;20046;-66
2022/09/19 13:33:54;;;;;;;0.95;0.45;;;;;;;;;;4970051;28;20435;-66
2022/09/19 13:36:24;;;;;;;1.88;0.50;;;;;;;;;;4972978;28;20046;-66
2022/09/19 13:38:56;;;;;;;1.90;0.52;;;;;;;;;;4972943;28;20054;-66
2022/09/19 13:41:28;;;;;;;1.17;0.80;;;;;;;;;;4972818;28;20054;-66
2022/09/19 13:43:55;;;;;;;0.52;0.40;;;;;;;;;;4972638;28;20055;-66
2022/09/19 13:46:21;;;;;;;1.20;0.80;;;;;;;;;;4972258;28;20514;-66
2022/09/19 13:48:49;;;;;;;0.52;0.52;;;;;;;;;;4972499;28;20061;-66
2022/09/19 13:51:23;;;;;;;1.05;0.50;;;;;;;;;;4972820;28;20443;-66
2022/09/19 13:54:08;;;;;;;1.50;1.17;;;;;;;;;;4972525;28;20413;-66
2022/09/19 13:56:36;;;;;;;1.10;0.95;;;;;;;;;;4971581;28;20737;-66
2022/09/19 13:59:14;;;;;;;0.70;0.50;;;;;;;;;;4971162;28;20426;-66
2022/09/19 14:01:52;;;;;;;1.65;0.80;;;;;;;;;;4971649;28;20077;-66
2022/09/19 14:07:04;;;;;;;0.90;0.60;;;;;;;;;;4969444;28;20070;-67
2022/09/19 14:09:53;;;;;;;0.90;0.40;;;;;;;;;;4970635;28;20062;-66
2022/09/19 14:12:38;;;;;;;0.75;0.50;;;;;;;;;;4972079;28;20052;-66
2022/09/19 14:15:25;;;;;;;0.73;0.52;;;;;;;;;;4972573;28;20138;-67
2022/09/19 14:18:10;;;;;;;0.65;0.40;;;;;;;;;;4971942;28;20046;-66
2022/09/19 14:20:46;;;;;;;0.93;0.45;;;;;;;;;;4972208;28;20163;-66
2022/09/19 14:23:14;;;;;;;0.40;0.37;;;;;;;;;;4970581;28;20046;-66
2022/09/19 14:25:41;;;;;;;0.80;0.30;;;;;;;;;;4972263;28;20058;-65
2022/09/19 14:28:26;;;;;;;0.68;0.30;;;;;;;;;;4971952;28;20502;-66
2022/09/19 14:30:52;;;;;;;0.50;0.43;;;;;;;;;;4971713;28;20051;-66
2022/09/19 14:33:37;;;;;;;1.63;0.60;;;;;;;;;;4970286;28;20054;-66
2022/09/19 14:36:16;;;;;;;1.45;0.70;;;;;;;;;;4971864;28;20046;-66
2022/09/19 14:39:01;;;;;;;0.50;0.43;;;;;;;;;;4970794;28;20047;-66
2022/09/19 14:41:35;;;;;;;0.98;0.70;;;;;;;;;;4971742;28;20043;-67
2022/09/19 14:44:21;;;;;;;0.95;0.80;;;;;;;;;;4971250;28;20527;-66
2022/09/19 14:47:06;;;;;;;2.50;0.70;;;;;;;;;;4971662;28;20525;-66
2022/09/19 14:49:43;;;;;;;0.77;0.70;;;;;;;;;;4971927;28;20047;-66
2022/09/19 14:52:14;;;;;;;2.05;1.25;;;;;;;;;;4972243;28;20047;-66
2022/09/19 14:54:42;;;;;;;3.28;2.00;;;;;;;;;;4971909;28;20058;-67
2022/09/19 14:57:13;;;;;;;3.72;2.47;;;;;;;;;;4973764;28;20047;-66
2022/09/19 14:59:41;;;;;;;4.03;2.42;;;;;;;;;;4976126;28;20054;-67
2022/09/19 15:02:19;;;;;;;1.40;1.30;;;;;;;;;;4975970;28;20046;-66
2022/09/19 15:04:49;;;;;;;3.38;2.00;;;;;;;;;;4975934;28;20450;-67
2022/09/19 15:07:15;;;;;;;1.08;1.00;;;;;;;;;;4975774;28;20047;-66
2022/09/19 15:09:42;;;;;;;2.88;1.20;;;;;;;;;;4975710;28;20057;-67
2022/09/19 15:12:16;;;;;;;2.73;1.20;;;;;;;;;;4975952;28;20043;-67
2022/09/19 15:14:45;;;;;;;3.60;2.47;;;;;;;;;;4975836;28;20286;-68
2022/09/19 15:17:13;;;;;;;3.65;2.78;;;;;;;;;;4975880;28;20046;-66
2022/09/19 15:19:43;;;;;;;4.22;3.17;;;;;;;;;;4975373;28;20059;-65
2022/09/19 15:22:21;;;;;;;3.85;1.80;;;;;;;;;;4975526;28;20055;-67
2022/09/19 15:24:50;;;;;;;1.80;1.70;;;;;;;;;;4973899;28;20418;-67
2022/09/19 15:27:18;;;;;;;2.97;2.53;;;;;;;;;;4975582;28;20058;-67
2022/09/19 15:29:47;;;;;;;2.83;2.63;;;;;;;;;;4975634;28;20065;-66
2022/09/19 15:32:23;;;;;;;4.05;3.60;;;;;;;;;;4975005;28;20479;-67
2022/09/19 15:34:52;;;;;;;1.92;1.80;;;;;;;;;;4974777;28;20055;-67